createdAt,value
2023-03-23T15:58:00.400Z,14.36
2023-03-23T15:59:00.410Z,14.41
2023-03-23T16:00:00.399Z,14.45
2023-03-23T16:01:00.409Z,14.48
2023-03-23T16:02:00.437Z,14.49
2023-03-23T16:03:00.470Z,14.53
2023-03-23T16:04:00.346Z,14.56
2023-03-23T16:05:00.343Z,14.56
2023-03-23T16:06:00.319Z,14.59
2023-03-23T16:07:00.335Z,14.57
2023-03-23T16:08:00.305Z,14.60
2023-03-23T16:09:00.275Z,14.61
2023-03-23T16:10:00.307Z,14.59
2023-03-23T16:11:00.318Z,14.59
2023-03-23T16:12:00.214Z,14.57
2023-03-23T16:13:00.241Z,14.57
2023-03-23T16:14:00.250Z,14.56
2023-03-23T16:15:00.194Z,14.53
2023-03-23T16:16:00.201Z,14.54
2023-03-23T16:17:00.252Z,14.53
2023-03-23T16:18:00.256Z,14.53
2023-03-23T16:19:00.181Z,14.52
2023-03-23T16:20:00.177Z,14.52
2023-03-23T16:21:00.147Z,14.49
2023-03-23T16:22:00.099Z,14.48
2023-03-23T16:23:00.111Z,14.49
2023-03-23T16:24:00.106Z,14.49
2023-03-23T16:25:00.099Z,14.48
2023-03-23T16:26:00.055Z,14.48
2023-03-23T16:27:00.106Z,14.54
2023-03-23T16:28:00.050Z,14.56
2023-03-23T16:29:11.724Z,14.59
2023-03-23T16:30:04.318Z,14.59
2023-03-23T16:31:00.014Z,14.60
2023-03-23T16:31:59.988Z,14.60
2023-03-23T16:32:59.996Z,14.61
2023-03-23T16:33:59.945Z,14.63
2023-03-23T16:34:59.966Z,14.63
2023-03-23T16:35:59.956Z,14.60
2023-03-23T16:36:59.931Z,14.59
2023-03-23T16:38:08.501Z,14.60
2023-03-23T16:39:00.939Z,14.57
2023-03-23T16:39:59.872Z,14.53
2023-03-23T16:40:59.851Z,14.53
2023-03-23T16:41:59.870Z,14.54
2023-03-23T16:42:59.851Z,14.53
2023-03-23T16:43:59.805Z,14.49
2023-03-23T16:44:59.805Z,14.48
2023-03-23T16:45:59.859Z,14.45
2023-03-23T16:46:59.775Z,14.46
2023-03-23T16:47:59.827Z,14.45
2023-03-23T16:48:59.795Z,14.45
2023-03-23T16:49:59.808Z,14.44
2023-03-23T16:50:59.744Z,14.42
2023-03-23T16:51:59.711Z,14.44
2023-03-23T16:52:59.728Z,14.45
2023-03-23T16:53:59.679Z,14.45
2023-03-23T16:54:59.738Z,14.46
2023-03-23T16:55:59.675Z,14.46
2023-03-23T16:56:59.706Z,14.45
2023-03-23T16:58:12.861Z,14.48
2023-03-23T16:59:00.647Z,14.48
2023-03-23T16:59:59.621Z,14.45
2023-03-23T17:00:59.600Z,14.46
2023-03-23T17:01:59.617Z,14.46
2023-03-23T17:02:59.656Z,14.45
2023-03-23T17:03:59.624Z,14.44
2023-03-23T17:04:59.547Z,14.45
2023-03-23T17:05:59.543Z,14.45
2023-03-23T17:06:59.550Z,14.45
2023-03-23T17:07:59.538Z,14.45
2023-03-23T17:08:59.510Z,14.46
2023-03-23T17:09:59.498Z,14.44
2023-03-23T17:10:59.490Z,14.44
2023-03-23T17:11:59.487Z,14.42
2023-03-23T17:12:59.482Z,14.45
2023-03-23T17:13:59.439Z,14.45
2023-03-23T17:14:59.444Z,14.45
2023-03-23T17:15:59.419Z,14.45
2023-03-23T17:16:59.380Z,14.42
2023-03-23T17:17:59.412Z,14.39
2023-03-23T17:18:59.422Z,14.36
2023-03-23T17:19:59.330Z,14.35
2023-03-23T17:20:59.334Z,14.31
2023-03-23T17:21:59.349Z,14.29
2023-03-23T17:22:59.307Z,14.29
2023-03-23T17:23:59.330Z,14.27
2023-03-23T17:24:59.303Z,14.26
2023-03-23T17:25:59.288Z,14.27
2023-03-23T17:26:59.259Z,14.23
2023-03-23T17:28:05.659Z,14.23
2023-03-23T17:29:00.303Z,14.23
2023-03-23T17:29:59.211Z,14.20
2023-03-23T17:30:59.219Z,14.17
2023-03-23T17:31:59.397Z,14.12
2023-03-23T17:32:59.244Z,14.08
2023-03-23T17:33:59.183Z,14.05
2023-03-23T17:34:59.184Z,14.04
2023-03-23T17:35:59.155Z,14.01
2023-03-23T17:36:59.152Z,13.96
2023-03-23T17:37:59.161Z,13.94
2023-03-23T17:38:59.119Z,13.88
2023-03-23T17:39:59.141Z,13.88
2023-03-23T17:40:59.091Z,13.86
2023-03-23T17:41:59.073Z,13.84
2023-03-23T17:42:59.055Z,13.81
2023-03-23T17:43:59.145Z,13.81
2023-03-23T17:44:59.021Z,13.83
2023-03-23T17:45:59.039Z,13.83
2023-03-23T17:46:59.003Z,13.84
2023-03-23T17:47:59.106Z,13.84
2023-03-23T17:48:58.984Z,13.83
2023-03-23T17:49:59.003Z,13.81
2023-03-23T17:50:58.934Z,13.79
2023-03-23T17:51:58.948Z,13.80
2023-03-23T17:52:58.930Z,13.80
2023-03-23T17:53:58.931Z,13.79
2023-03-23T17:54:58.910Z,13.76
2023-03-23T17:55:59.215Z,13.73
2023-03-23T17:56:58.923Z,13.68
2023-03-23T17:57:58.860Z,13.68
2023-03-23T17:58:58.821Z,13.66
2023-03-23T17:59:58.821Z,13.66
2023-03-23T18:00:58.908Z,13.68
2023-03-23T18:01:58.864Z,13.69
2023-03-23T18:02:58.812Z,13.71
2023-03-23T18:03:58.778Z,13.69
2023-03-23T18:04:58.772Z,13.71
2023-03-23T18:05:58.836Z,13.68
2023-03-23T18:06:58.769Z,13.66
2023-03-23T18:07:58.731Z,13.65
2023-03-23T18:08:58.764Z,13.65
2023-03-23T18:09:58.702Z,13.65
2023-03-23T18:10:58.709Z,13.65
2023-03-23T18:11:58.699Z,13.62
2023-03-23T18:12:58.654Z,13.59
2023-03-23T18:13:58.641Z,13.57
2023-03-23T18:14:58.621Z,13.54
2023-03-23T18:15:58.635Z,13.51
2023-03-23T18:16:58.633Z,13.50
2023-03-23T18:17:58.648Z,13.48
2023-03-23T18:18:58.571Z,13.44
2023-03-23T18:19:58.597Z,13.43
2023-03-23T18:20:58.576Z,13.38
2023-03-23T18:21:58.587Z,13.36
2023-03-23T18:22:58.546Z,13.32
2023-03-23T18:23:59.870Z,13.32
2023-03-23T18:24:58.514Z,13.32
2023-03-23T18:25:58.536Z,13.28
2023-03-23T18:26:58.462Z,13.28
2023-03-23T18:27:58.475Z,13.28
2023-03-23T18:28:59.446Z,13.29
2023-03-23T18:29:58.468Z,13.29
2023-03-23T18:30:58.444Z,13.29
2023-03-23T18:31:58.442Z,13.28
2023-03-23T18:32:58.455Z,13.28
2023-03-23T18:33:58.421Z,13.27
2023-03-23T18:34:58.397Z,13.28
2023-03-23T18:35:58.452Z,13.28
2023-03-23T18:36:58.360Z,13.28
2023-03-23T18:37:58.360Z,13.29
2023-03-23T18:38:58.363Z,13.35
2023-03-23T18:39:58.348Z,13.38
2023-03-23T18:40:58.279Z,13.38
2023-03-23T18:41:58.280Z,13.38
2023-03-23T18:42:58.311Z,13.38
2023-03-23T18:43:58.297Z,13.38
2023-03-23T18:44:58.269Z,13.41
2023-03-23T18:45:58.281Z,13.43
2023-03-23T18:46:58.229Z,13.46
2023-03-23T18:47:58.256Z,13.46
2023-03-23T18:48:58.194Z,13.44
2023-03-23T18:49:58.192Z,13.47
2023-03-23T18:50:58.200Z,13.44
2023-03-23T18:51:58.181Z,13.44
2023-03-23T18:52:58.164Z,13.43
2023-03-23T18:53:58.156Z,13.46
2023-03-23T18:54:58.145Z,13.47
2023-03-23T18:55:58.108Z,13.46
2023-03-23T18:57:00.401Z,13.47
2023-03-23T18:57:58.087Z,13.48
2023-03-23T18:58:58.061Z,13.47
2023-03-23T18:59:58.086Z,13.48
2023-03-23T19:00:58.104Z,13.46
2023-03-23T19:01:58.068Z,13.48
2023-03-23T19:02:58.111Z,13.50
2023-03-23T19:03:58.016Z,13.50
2023-03-23T19:04:58.021Z,13.48
2023-03-23T19:05:57.997Z,13.48
2023-03-23T19:06:57.982Z,13.47
2023-03-23T19:07:57.996Z,13.47
2023-03-23T19:08:57.966Z,13.47
2023-03-23T19:09:57.935Z,13.50
2023-03-23T19:10:58.246Z,13.51
2023-03-23T19:11:57.939Z,13.48
2023-03-23T19:12:58.787Z,13.53
2023-03-23T19:14:02.916Z,13.51
2023-03-23T19:14:58.867Z,13.48
2023-03-23T19:15:58.084Z,13.48
2023-03-23T19:16:57.861Z,13.47
2023-03-23T19:17:58.018Z,13.47
2023-03-23T19:18:57.847Z,13.48
2023-03-23T19:19:58.094Z,13.47
2023-03-23T19:21:57.832Z,13.50
2023-03-23T19:22:57.804Z,13.48
2023-03-23T19:23:57.858Z,13.48
2023-03-23T19:24:57.759Z,13.50
2023-03-23T19:25:57.840Z,13.50
2023-03-23T19:26:57.727Z,13.50
2023-03-23T19:28:49.946Z,13.50
2023-03-23T19:29:57.782Z,13.51
2023-03-23T19:30:57.693Z,13.53
2023-03-23T19:31:57.760Z,13.53
2023-03-23T19:32:57.803Z,13.53
2023-03-23T19:33:57.687Z,13.54
2023-03-23T19:34:57.681Z,13.55
2023-03-23T19:36:09.109Z,13.55
2023-03-23T19:37:05.355Z,13.54
2023-03-23T19:37:58.587Z,13.54
2023-03-23T19:38:57.585Z,13.53
2023-03-23T19:39:59.244Z,13.51
2023-03-23T19:40:57.942Z,13.51
2023-03-23T19:41:57.554Z,13.50
2023-03-23T19:42:57.528Z,13.48
2023-03-23T19:43:57.543Z,13.50
2023-03-23T19:44:57.503Z,13.51
2023-03-23T19:45:57.535Z,13.51
2023-03-23T19:46:57.849Z,13.53
2023-03-23T19:47:57.607Z,13.48
2023-03-23T19:48:57.490Z,13.51
2023-03-23T19:49:57.432Z,13.51
2023-03-23T19:50:57.436Z,13.53
2023-03-23T19:52:07.233Z,13.53
2023-03-23T19:53:00.536Z,13.51
2023-03-23T19:53:57.408Z,13.51
2023-03-23T19:54:57.350Z,13.51
2023-03-23T19:55:57.471Z,13.51
2023-03-23T19:56:57.374Z,13.51
2023-03-23T19:57:57.358Z,13.54
2023-03-23T19:58:57.302Z,13.55
2023-03-23T19:59:59.147Z,13.61
2023-03-23T20:00:57.505Z,13.62
2023-03-23T20:01:57.329Z,13.65
2023-03-23T20:02:58.123Z,13.66
2023-03-23T20:04:00.037Z,13.69
2023-03-23T20:04:57.240Z,13.69
2023-03-23T20:05:57.256Z,13.69
2023-03-23T20:06:57.265Z,13.69
2023-03-23T20:07:57.381Z,13.68
2023-03-23T20:09:00.045Z,13.68
2023-03-23T20:09:57.202Z,13.68
2023-03-23T20:10:57.159Z,13.66
2023-03-23T20:11:57.172Z,13.66
2023-03-23T20:12:57.119Z,13.65
2023-03-23T20:13:57.698Z,13.65
2023-03-23T20:14:57.081Z,13.66
2023-03-23T20:16:00.168Z,13.66
2023-03-23T20:16:57.168Z,13.68
2023-03-23T20:17:57.979Z,13.68
2023-03-23T20:19:00.285Z,13.66
2023-03-23T20:19:57.592Z,13.66
2023-03-23T20:20:58.148Z,13.68
2023-03-23T20:21:57.038Z,13.68
2023-03-23T20:22:58.181Z,13.68
2023-03-23T20:23:57.040Z,13.69
2023-03-23T20:24:56.993Z,13.69
2023-03-23T20:25:57.747Z,13.71
2023-03-23T20:26:56.948Z,13.72
2023-03-23T20:27:57.120Z,13.71
2023-03-23T20:28:56.914Z,13.69
2023-03-23T20:29:57.031Z,13.69
2023-03-23T20:31:17.051Z,13.69
2023-03-23T20:31:57.906Z,13.69
2023-03-23T20:32:56.976Z,13.69
2023-03-23T20:34:01.060Z,13.69
2023-03-23T20:34:56.839Z,13.68
2023-03-23T20:35:56.908Z,13.66
2023-03-23T20:36:56.801Z,13.65
2023-03-23T20:37:56.818Z,13.65
2023-03-23T20:38:56.768Z,13.63
2023-03-23T20:39:56.815Z,13.61
2023-03-23T20:40:56.778Z,13.61
2023-03-23T20:41:56.762Z,13.59
2023-03-23T20:42:56.751Z,13.59
2023-03-23T20:43:56.751Z,13.55
2023-03-23T20:44:56.712Z,13.54
2023-03-23T20:45:56.706Z,13.53
2023-03-23T20:46:56.655Z,13.54
2023-03-23T20:47:56.752Z,13.50
2023-03-23T20:48:56.670Z,13.48
2023-03-23T20:49:56.665Z,13.50
2023-03-23T20:50:56.634Z,13.47
2023-03-23T20:51:56.646Z,13.48
2023-03-23T20:52:56.597Z,13.47
2023-03-23T20:53:56.616Z,13.48
2023-03-23T20:54:56.562Z,13.47
2023-03-23T20:55:56.571Z,13.48
2023-03-23T20:56:56.597Z,13.47
2023-03-23T20:57:56.569Z,13.47
2023-03-23T20:58:56.545Z,13.47
2023-03-23T20:59:56.546Z,13.44
2023-03-23T21:00:56.519Z,13.43
2023-03-23T21:01:56.512Z,13.44
2023-03-23T21:02:56.566Z,13.43
2023-03-23T21:03:56.492Z,13.43
2023-03-23T21:04:56.455Z,13.43
2023-03-23T21:05:56.480Z,13.43
2023-03-23T21:06:56.412Z,13.43
2023-03-23T21:07:56.513Z,13.43
2023-03-23T21:08:56.417Z,13.43
2023-03-23T21:09:56.388Z,13.43
2023-03-23T21:10:56.366Z,13.41
2023-03-23T21:11:56.380Z,13.41
2023-03-23T21:12:56.325Z,13.41
2023-03-23T21:13:56.339Z,13.41
2023-03-23T21:14:56.340Z,13.39
2023-03-23T21:15:56.308Z,13.39
2023-03-23T21:16:56.310Z,13.39
2023-03-23T21:17:56.357Z,13.38
2023-03-23T21:19:09.946Z,13.36
2023-03-23T21:19:56.291Z,13.39
2023-03-23T21:20:56.246Z,13.38
2023-03-23T21:21:57.225Z,13.38
2023-03-23T21:22:56.264Z,13.36
2023-03-23T21:23:56.198Z,13.36
2023-03-23T21:24:56.169Z,13.36
2023-03-23T21:25:56.210Z,13.36
2023-03-23T21:26:56.246Z,13.36
2023-03-23T21:27:56.139Z,13.36
2023-03-23T21:28:56.123Z,13.35
2023-03-23T21:29:56.147Z,13.35
2023-03-23T21:30:56.116Z,13.32
2023-03-23T21:32:07.726Z,13.32
2023-03-23T21:32:57.146Z,13.31
2023-03-23T21:33:56.084Z,13.29
2023-03-23T21:34:56.065Z,13.31
2023-03-23T21:35:56.092Z,13.29
2023-03-23T21:36:56.019Z,13.29
2023-03-23T21:37:56.034Z,13.28
2023-03-23T21:38:56.013Z,13.29
2023-03-23T21:39:55.985Z,13.31
2023-03-23T21:40:56.004Z,13.31
2023-03-23T21:41:55.996Z,13.31
2023-03-23T21:42:55.976Z,13.32
2023-03-23T21:43:55.920Z,13.35
2023-03-23T21:44:55.926Z,13.36
2023-03-23T21:45:55.920Z,13.36
2023-03-23T21:46:55.924Z,13.36
2023-03-23T21:47:55.960Z,13.35
2023-03-23T21:48:56.021Z,13.32
2023-03-23T21:49:55.886Z,13.31
2023-03-23T21:50:55.845Z,13.32
2023-03-23T21:51:56.108Z,13.31
2023-03-23T21:52:55.834Z,13.31
2023-03-23T21:53:55.796Z,13.29
2023-03-23T21:54:55.816Z,13.29
2023-03-23T21:55:55.808Z,13.28
2023-03-23T21:56:55.810Z,13.28
2023-03-23T21:57:55.787Z,13.28
2023-03-23T21:58:55.742Z,13.27
2023-03-23T21:59:55.723Z,13.25
2023-03-23T22:00:55.722Z,13.25
2023-03-23T22:01:55.725Z,13.24
2023-03-23T22:02:55.825Z,13.27
2023-03-23T22:03:55.665Z,13.25
2023-03-23T22:04:55.676Z,13.27
2023-03-23T22:05:55.658Z,13.25
2023-03-23T22:06:55.655Z,13.27
2023-03-23T22:07:55.650Z,13.27
2023-03-23T22:08:55.643Z,13.27
2023-03-23T22:09:55.607Z,13.27
2023-03-23T22:11:00.405Z,13.28
2023-03-23T22:11:56.600Z,13.27
2023-03-23T22:12:55.724Z,13.27
2023-03-23T22:13:55.556Z,13.29
2023-03-23T22:14:55.544Z,13.31
2023-03-23T22:15:55.528Z,13.32
2023-03-23T22:16:55.559Z,13.35
2023-03-23T22:17:55.665Z,13.36
2023-03-23T22:18:56.452Z,13.36
2023-03-23T22:19:55.475Z,13.35
2023-03-23T22:20:55.463Z,13.35
2023-03-23T22:21:55.464Z,13.35
2023-03-23T22:22:55.434Z,13.31
2023-03-23T22:23:55.452Z,13.27
2023-03-23T22:24:55.397Z,13.28
2023-03-23T22:25:55.389Z,13.25
2023-03-23T22:26:55.402Z,13.25
2023-03-23T22:27:55.394Z,13.24
2023-03-23T22:28:55.373Z,13.24
2023-03-23T22:29:55.322Z,13.24
2023-03-23T22:30:55.357Z,13.21
2023-03-23T22:31:55.302Z,13.19
2023-03-23T22:32:55.330Z,13.17
2023-03-23T22:33:55.328Z,13.16
2023-03-23T22:34:55.366Z,13.17
2023-03-23T22:35:55.291Z,13.14
2023-03-23T22:36:55.522Z,13.13
2023-03-23T22:37:55.264Z,13.12
2023-03-23T22:38:55.273Z,13.10
2023-03-23T22:39:55.225Z,13.07
2023-03-23T22:40:55.219Z,13.07
2023-03-23T22:41:55.220Z,13.06
2023-03-23T22:42:55.621Z,13.06
2023-03-23T22:43:55.193Z,13.06
2023-03-23T22:44:55.158Z,13.03
2023-03-23T22:45:55.166Z,13.03
2023-03-23T22:46:55.124Z,12.99
2023-03-23T22:47:55.166Z,12.98
2023-03-23T22:48:55.151Z,12.94
2023-03-23T22:49:55.122Z,12.94
2023-03-23T22:50:55.090Z,12.92
2023-03-23T22:51:55.045Z,12.91
2023-03-23T22:52:55.063Z,12.89
2023-03-23T22:53:55.965Z,12.89
2023-03-23T22:54:55.054Z,12.88
2023-03-23T22:55:55.024Z,12.85
2023-03-23T22:56:55.043Z,12.84
2023-03-23T22:57:54.994Z,12.79
2023-03-23T22:58:54.996Z,12.77
2023-03-23T22:59:54.998Z,12.77
2023-03-23T23:00:54.983Z,12.76
2023-03-23T23:01:54.922Z,12.74
2023-03-23T23:02:54.948Z,12.74
2023-03-23T23:03:54.918Z,12.73
2023-03-23T23:04:54.908Z,12.71
2023-03-23T23:05:54.875Z,12.70
2023-03-23T23:07:03.202Z,12.70
2023-03-23T23:07:55.922Z,12.69
2023-03-23T23:08:54.927Z,12.67
2023-03-23T23:09:54.825Z,12.67
2023-03-23T23:10:55.005Z,12.67
2023-03-23T23:11:54.887Z,12.67
2023-03-23T23:12:54.809Z,12.63
2023-03-23T23:13:54.791Z,12.62
2023-03-23T23:14:54.773Z,12.62
2023-03-23T23:15:54.773Z,12.59
2023-03-23T23:16:54.796Z,12.59
2023-03-23T23:17:54.786Z,12.59
2023-03-23T23:18:54.784Z,12.61
2023-03-23T23:19:54.687Z,12.58
2023-03-23T23:20:54.713Z,12.59
2023-03-23T23:21:54.691Z,12.56
2023-03-23T23:22:54.672Z,12.55
2023-03-23T23:23:54.661Z,12.54
2023-03-23T23:24:54.659Z,12.52
2023-03-23T23:25:54.621Z,12.52
2023-03-23T23:26:54.601Z,12.52
2023-03-23T23:27:54.605Z,12.54
2023-03-23T23:28:54.605Z,12.54
2023-03-23T23:29:54.597Z,12.52
2023-03-23T23:30:54.617Z,12.51
2023-03-23T23:31:54.589Z,12.51
2023-03-23T23:32:54.611Z,12.51
2023-03-23T23:33:54.525Z,12.51
2023-03-23T23:34:54.510Z,12.49
2023-03-23T23:35:54.577Z,12.51
2023-03-23T23:36:54.512Z,12.49
2023-03-23T23:37:54.508Z,12.49
2023-03-23T23:38:54.465Z,12.49
2023-03-23T23:39:54.442Z,12.48
2023-03-23T23:40:54.447Z,12.51
2023-03-23T23:41:54.419Z,12.51
2023-03-23T23:42:54.430Z,12.52
2023-03-23T23:43:54.439Z,12.51
2023-03-23T23:44:54.378Z,12.52
2023-03-23T23:45:54.397Z,12.54
2023-03-23T23:46:54.526Z,12.54
2023-03-23T23:47:54.508Z,12.54
2023-03-23T23:48:54.324Z,12.55
2023-03-23T23:49:54.501Z,12.55
2023-03-23T23:50:54.433Z,12.56
2023-03-23T23:51:54.270Z,12.54
2023-03-23T23:52:54.295Z,12.55
2023-03-23T23:53:54.509Z,12.55
2023-03-23T23:54:54.252Z,12.56
2023-03-23T23:55:54.230Z,12.55
2023-03-23T23:56:54.307Z,12.55
2023-03-23T23:57:54.212Z,12.55
2023-03-23T23:58:54.233Z,12.55
2023-03-23T23:59:54.195Z,12.55
